Dauntless Aviation
Airports Europe United Kingdom
EGUN
MHZ

RAF Mildenhall

Mildenhall, UNITED KINGDOM

Airport Info
Suggest Updated Information for this Airport

Location

Latitude / Longitude: 52°21'42"N / 0°29'11"E
  52°21.714'N / 0°29.184'E
  52.3619 / 0.4864

Nearby radio navigation aids

MLD MILDENHALL TACAN on field.

Runway Information

Runway 11 /29

Dimensions: 9219 x 200 ft.
Surface: ASP
 
Runway 11
Runway 29
Latitude: 52.364333 52.358667
Longitude: 0.468 0.508167
Elevation: 27 ft. 27 ft.
Runway true heading: 102.1 282.6
 
Satellite photo at:
Airport distance calculator
From:
Weather Reports

METAR

EGUN

EGUN 191056Z 23021G33KT 9999 FEW022 SCT200 20/16 A2984 RMK AO2A PK WND 22034/20 SLP108 T01950159 FZRANO $
EGUL
4.4nm N
EGUL 191056Z 23030G35KT 9999 BKN028 19/03 A2983 RMK PK WND 23035/47 VIS 2800 RWY06 SLP105 T01940031 $
EGSC
15.2nm SW
EGSC 191050Z 23017G28KT 9999 BKN015 20/14 Q1011
EGYM
16.6nm N
EGYM 191050Z 21023KT 9999 SCT022 BKN025 19/15 Q1010 TEMPO BKN025 RMK WHT TEMPO BLU
EGUW
23.0nm E
EGUW 191108Z 24019KT 9999 BKN027 19/15 Q1012 NOSIG RMK BLU BLU
EGSS
30.4nm S
EGSS 191050Z AUTO 23019KT 9999 OVC025 18/14 Q1013

TAF

EGUN
TAF AMD EGUN 190830Z 1908/2010 21010G20KT 8000 -SHRA OVC010 QNH2986INS BECMG 1908/1909 21015G25KT 9999 -SHRA SCT007 OVC015 510003 QNH2986INS BECMG 1909/1911 22015G25KT 9999 NSW SCT015 510003 QNH2983INS TEMPO 1911/1914 22020G35KT 520005 BECMG 1913/1914 22015G25KT 9999 BKN020 510003 QNH2979INS BECMG 1915/1916 22015G25KT 9999 BKN015 510003 QNH2979INS BECMG 1917/1918 21015G30KT 9000 -RA OVC010 510003 QNH2973INS BECMG 1920/1921 21015G25KT 9000 -RA BKN007 OVC012 510003 QNH2960INS BECMG 2003/2004 22010G20KT 9999 NSW BKN007 OVC012 QNH2954INS BECMG 2009/2010 22015G25KT 9999 SCT007 BKN015 510003 QNH2954INS TX20/1913Z TN16/2002Z
EGUL
4.4nm N
TAF AMD EGUL 191030Z 1910/2011 22025G30KT 9999 BKN025 510003 QNH2983INS TEMPO 1911/1914 22030G35KT 520003 BECMG 1914/1915 22025G30KT 9999 SCT020 BKN030 510003 QNH2982INS BECMG 1916/1917 21018G25KT 9999 BKN025 510003 QNH2979INS BECMG 1919/1920 21020G25KT 8000 -SHRA BKN015 510003 QNH2973INS TEMPO 1920/1923 22025G30KT SCT005 BKN010 BECMG 2001/2002 22012G20KT 8000 -SHRA BKN008 OVC010 QNH2962INS BECMG 2008/2009 23018G25KT 9999 NSW SCT010 BKN015 510003 QNH2954INS BECMG 2009/2010 23018G25KT 9999 SCT020 BKN050 510003 QNH2954INS TX19/1914Z TN15/2005Z
EGSC
15.2nm SW
TAF EGSC 190825Z 1909/1918 21012KT 9999 BKN010 BECMG 1909/1912 SCT015 PROB40 TEMPO 1909/1918 21015G25KT
EGYM
16.6nm N
TAF EGYM 190731Z 1909/1918 21015G25KT 9999 SCT008 OVC018 PROB30 1909/1911 7000 -RADZ PROB30 TEMPO 1909/1912 FEW008 BKN018 BECMG 1912/1915 BKN018 PROB30 TEMPO 1915/1918 FEW018 SCT030
EGUW
23.0nm E
TAF AMD EGUW 190824Z 1909/1918 20014KT 9999 BKN007 BECMG 1909/1911 21017G27KT SCT020 PROB30 TEMPO 1909/1910 5000 -DZ SCT005 PROB40 TEMPO 1911/1918 FEW020
EGSS
30.4nm S
TAF AMD EGSS 191004Z 1910/2012 21014KT 9999 FEW012 SCT022 TEMPO 1910/1923 21018G28KT PROB30 TEMPO 1910/1912 BKN010 TEMPO 1918/2005 6000 RA BKN008 PROB40 TEMPO 1921/2005 3000 +RA RADZ BKN004 TEMPO 2009/2012 23018G30KT PROB30 TEMPO 2009/2012 3000 +SHRA +SHGS BKN008 BKN015CB
Safelog

 

Dauntless Aviation

© 2007-2021 Dauntless Aviation, all rights reserved
Information provided via PilotNav comes from a variety of official and unofficial data sources. As errors are possible, do not use PilotNav for primary flight planning purposes. Verify any information that you receive via PilotNav with current and canonical charts and other official documents. The material in this database is subject to database copyrights held by Dauntless Aviation and may not be copied without the express permission of Dauntless Aviation - licenses for use of part of all of this data are available for purchase; enquire via the Dauntless Aviation helpdesk. A number of mechanisms and markers exist in the database to protect against and identify infringement / copyright. Automated queries against this website are strictly prohibited, and all activity is logged and analyzed.